Pagina principală
METAR-TAF:

METAR-TAF

Aeroporturi :

Rio Branco, Acru, Brazilia

Latitudine: 10-00S, longitudine: 067-48W, elevație: 142 m

Observații meteo curente

Raportul a fost făcut în urmă cu 1 oră și 9 de minute, la 09:00 UTC
Vânt 2 kt de la Nord
Temperatură 22°C
Umiditate 94%
Presiune 1012 hPa
Vizibilitate de 10 km sau mai mult
nu există nori sub 1.500 m și nici cumulonimbus

METAR: SBRB 140900Z 36002KT CAVOK 22/21 Q1012

Ora: 05:09 (10:09 UTC)

Prognoză

Raportul a fost făcut în urmă cu 7 ore și 29 de minute, la 02:40 UTC
Prognoză valabilă de la 14 ora 06 UTC la 14 ora 18 UTC
Vânt 6 kt de la Nord
Vizibilitate de 10 km sau mai mult
nu există nori sub 1.500 m și nici cumulonimbus
Devenind
de la 14 ora 15 UTC la 14 ora 17 UTC
Nori fragmentați la o înălțime de 3500 picior

TAF: SBRB 140240Z 1406/1418 36006KT CAVOK TN22/1409Z TX32/1417Z BECMG 1415/1417 BKN035 RMK PGX

Observații și prognoze meteo pentru peste 4.000 de aeroporturi (rapoarte METAR și TAF).

Stațiile disponibile sunt reprezentate pe hartă prin puncte galbene și roșii.

Țineți indicatorul mouse-ului pe punctul dorit pentru a vedea denumirea stației.

Apoi, faceți clic pentru a vedea observațiile și prognozele meteorologice.

Pentru a schimba harta: Pentru mărire, faceți clic pe butoanele verzi cu cruce neagră; pentru micșorare, pe butonul verde cu o liniuță; pentru hărți învecinate, pe săgețile verzi.


METAR-TAF: